sensor_id;sensor_type;location;lat;lon;timestamp;temperature;humidity
24087;DHT22;22893;50.572;7.234;2022-10-31T00:01:40;22.20;79.30
24087;DHT22;22893;50.572;7.234;2022-10-31T00:04:08;22.20;79.10
24087;DHT22;22893;50.572;7.234;2022-10-31T00:06:35;22.20;78.90
24087;DHT22;22893;50.572;7.234;2022-10-31T00:09:04;22.20;79.10
24087;DHT22;22893;50.572;7.234;2022-10-31T00:11:31;22.10;79.20
24087;DHT22;22893;50.572;7.234;2022-10-31T00:13:59;22.20;79.40
24087;DHT22;22893;50.572;7.234;2022-10-31T00:16:27;22.20;79.40
24087;DHT22;22893;50.572;7.234;2022-10-31T00:19:02;22.20;79.20
24087;DHT22;22893;50.572;7.234;2022-10-31T00:21:26;22.20;79.10
24087;DHT22;22893;50.572;7.234;2022-10-31T00:23:54;22.20;78.90
24087;DHT22;22893;50.572;7.234;2022-10-31T00:26:21;22.20;78.90
24087;DHT22;22893;50.572;7.234;2022-10-31T00:28:49;22.20;79.00
24087;DHT22;22893;50.572;7.234;2022-10-31T00:31:17;22.20;79.10
24087;DHT22;22893;50.572;7.234;2022-10-31T00:33:45;22.20;79.00
24087;DHT22;22893;50.572;7.234;2022-10-31T00:36:15;22.20;78.90
24087;DHT22;22893;50.572;7.234;2022-10-31T00:38:43;22.20;78.90
24087;DHT22;22893;50.572;7.234;2022-10-31T00:41:12;22.10;78.80
24087;DHT22;22893;50.572;7.234;2022-10-31T00:43:41;22.10;79.00
24087;DHT22;22893;50.572;7.234;2022-10-31T00:46:09;22.20;79.00
24087;DHT22;22893;50.572;7.234;2022-10-31T00:48:37;22.20;79.10
24087;DHT22;22893;50.572;7.234;2022-10-31T00:51:05;22.20;79.10
24087;DHT22;22893;50.572;7.234;2022-10-31T00:53:32;22.20;79.00
24087;DHT22;22893;50.572;7.234;2022-10-31T00:56:00;22.20;79.00
24087;DHT22;22893;50.572;7.234;2022-10-31T00:58:28;22.20;79.10
24087;DHT22;22893;50.572;7.234;2022-10-31T01:00:55;22.20;78.90
24087;DHT22;22893;50.572;7.234;2022-10-31T01:03:25;22.20;78.90
24087;DHT22;22893;50.572;7.234;2022-10-31T01:08:33;22.20;78.90
24087;DHT22;22893;50.572;7.234;2022-10-31T01:11:18;22.20;78.80
24087;DHT22;22893;50.572;7.234;2022-10-31T01:13:46;22.20;78.80
24087;DHT22;22893;50.572;7.234;2022-10-31T01:16:17;22.10;78.70
24087;DHT22;22893;50.572;7.234;2022-10-31T01:18:45;22.20;78.60
24087;DHT22;22893;50.572;7.234;2022-10-31T01:21:16;22.20;78.60
24087;DHT22;22893;50.572;7.234;2022-10-31T01:23:44;22.10;78.60
24087;DHT22;22893;50.572;7.234;2022-10-31T01:26:17;22.10;78.70
24087;DHT22;22893;50.572;7.234;2022-10-31T01:28:50;22.20;78.60
24087;DHT22;22893;50.572;7.234;2022-10-31T01:31:20;22.20;78.70
24087;DHT22;22893;50.572;7.234;2022-10-31T01:33:48;22.10;78.60
24087;DHT22;22893;50.572;7.234;2022-10-31T01:36:30;22.10;78.70
24087;DHT22;22893;50.572;7.234;2022-10-31T01:39:04;22.10;78.70
24087;DHT22;22893;50.572;7.234;2022-10-31T01:41:34;22.10;78.50
24087;DHT22;22893;50.572;7.234;2022-10-31T01:47:04;22.10;78.60
24087;DHT22;22893;50.572;7.234;2022-10-31T01:49:58;22.10;78.60
24087;DHT22;22893;50.572;7.234;2022-10-31T01:52:36;22.10;78.50
24087;DHT22;22893;50.572;7.234;2022-10-31T01:55:09;22.10;79.40
24087;DHT22;22893;50.572;7.234;2022-10-31T01:57:33;22.10;78.50
24087;DHT22;22893;50.572;7.234;2022-10-31T02:00:06;22.10;78.50
24087;DHT22;22893;50.572;7.234;2022-10-31T02:02:33;22.10;79.50
24087;DHT22;22893;50.572;7.234;2022-10-31T02:05:04;22.10;78.50
24087;DHT22;22893;50.572;7.234;2022-10-31T02:07:49;22.10;78.60
24087;DHT22;22893;50.572;7.234;2022-10-31T02:10:17;22.10;78.50
24087;DHT22;22893;50.572;7.234;2022-10-31T02:12:46;22.10;78.40
24087;DHT22;22893;50.572;7.234;2022-10-31T02:15:14;22.10;78.40
24087;DHT22;22893;50.572;7.234;2022-10-31T02:17:43;22.10;78.30
24087;DHT22;22893;50.572;7.234;2022-10-31T02:20:22;22.10;78.40
24087;DHT22;22893;50.572;7.234;2022-10-31T02:23:29;22.10;78.40
24087;DHT22;22893;50.572;7.234;2022-10-31T02:29:16;22.10;78.20
24087;DHT22;22893;50.572;7.234;2022-10-31T02:32:00;22.10;78.30
24087;DHT22;22893;50.572;7.234;2022-10-31T02:34:57;22.10;78.30
24087;DHT22;22893;50.572;7.234;2022-10-31T02:37:34;22.00;78.20
24087;DHT22;22893;50.572;7.234;2022-10-31T02:40:17;22.10;78.30
24087;DHT22;22893;50.572;7.234;2022-10-31T02:42:55;22.10;78.20
24087;DHT22;22893;50.572;7.234;2022-10-31T02:45:24;22.00;78.10
24087;DHT22;22893;50.572;7.234;2022-10-31T02:47:53;22.00;78.20
24087;DHT22;22893;50.572;7.234;2022-10-31T02:50:30;22.00;78.20
24087;DHT22;22893;50.572;7.234;2022-10-31T02:52:57;22.00;78.00
24087;DHT22;22893;50.572;7.234;2022-10-31T02:57:58;22.00;78.20
24087;DHT22;22893;50.572;7.234;2022-10-31T03:00:26;22.00;78.20
24087;DHT22;22893;50.572;7.234;2022-10-31T03:03:14;22.00;78.20
24087;DHT22;22893;50.572;7.234;2022-10-31T03:11:10;22.00;78.20
24087;DHT22;22893;50.572;7.234;2022-10-31T03:13:59;22.00;78.20
24087;DHT22;22893;50.572;7.234;2022-10-31T03:16:41;22.00;78.00
24087;DHT22;22893;50.572;7.234;2022-10-31T03:19:11;22.00;78.10
24087;DHT22;22893;50.572;7.234;2022-10-31T03:24:12;22.00;78.10
24087;DHT22;22893;50.572;7.234;2022-10-31T03:26:46;22.00;77.90
24087;DHT22;22893;50.572;7.234;2022-10-31T03:29:16;22.00;77.90
24087;DHT22;22893;50.572;7.234;2022-10-31T03:31:57;22.00;77.90
24087;DHT22;22893;50.572;7.234;2022-10-31T03:34:21;22.00;77.80
24087;DHT22;22893;50.572;7.234;2022-10-31T03:36:54;21.90;77.70
24087;DHT22;22893;50.572;7.234;2022-10-31T03:39:23;21.90;77.90
24087;DHT22;22893;50.572;7.234;2022-10-31T03:42:00;21.90;77.80
24087;DHT22;22893;50.572;7.234;2022-10-31T03:44:29;22.00;77.80
24087;DHT22;22893;50.572;7.234;2022-10-31T03:46:58;21.90;77.70
24087;DHT22;22893;50.572;7.234;2022-10-31T03:49:27;21.80;74.80
24087;DHT22;22893;50.572;7.234;2022-10-31T03:52:07;21.70;75.20
24087;DHT22;22893;50.572;7.234;2022-10-31T03:54:37;21.70;76.50
24087;DHT22;22893;50.572;7.234;2022-10-31T03:57:44;21.80;76.70
24087;DHT22;22893;50.572;7.234;2022-10-31T04:00:00;21.80;76.70
24087;DHT22;22893;50.572;7.234;2022-10-31T04:02:30;21.80;76.80
24087;DHT22;22893;50.572;7.234;2022-10-31T04:04:59;21.70;76.70
24087;DHT22;22893;50.572;7.234;2022-10-31T04:07:33;21.80;76.70
24087;DHT22;22893;50.572;7.234;2022-10-31T04:10:04;21.80;76.70
24087;DHT22;22893;50.572;7.234;2022-10-31T04:12:33;21.80;76.60
24087;DHT22;22893;50.572;7.234;2022-10-31T04:15:03;21.80;76.70
24087;DHT22;22893;50.572;7.234;2022-10-31T04:17:34;21.80;76.70
24087;DHT22;22893;50.572;7.234;2022-10-31T04:20:03;21.80;76.60
24087;DHT22;22893;50.572;7.234;2022-10-31T04:22:31;21.80;76.60
24087;DHT22;22893;50.572;7.234;2022-10-31T04:24:58;21.80;76.60
24087;DHT22;22893;50.572;7.234;2022-10-31T04:27:26;21.80;76.50
24087;DHT22;22893;50.572;7.234;2022-10-31T04:29:53;21.80;76.50
24087;DHT22;22893;50.572;7.234;2022-10-31T04:32:21;21.80;76.50
24087;DHT22;22893;50.572;7.234;2022-10-31T04:34:48;21.80;76.40
24087;DHT22;22893;50.572;7.234;2022-10-31T04:37:18;21.80;76.50
24087;DHT22;22893;50.572;7.234;2022-10-31T04:39:46;21.70;76.40
24087;DHT22;22893;50.572;7.234;2022-10-31T04:42:13;21.80;76.50
24087;DHT22;22893;50.572;7.234;2022-10-31T04:44:41;21.80;76.40
24087;DHT22;22893;50.572;7.234;2022-10-31T04:47:08;21.80;76.40
24087;DHT22;22893;50.572;7.234;2022-10-31T04:49:36;21.70;76.30
24087;DHT22;22893;50.572;7.234;2022-10-31T04:52:04;21.70;76.20
24087;DHT22;22893;50.572;7.234;2022-10-31T04:54:31;21.70;76.20
24087;DHT22;22893;50.572;7.234;2022-10-31T04:56:59;21.70;76.20
24087;DHT22;22893;50.572;7.234;2022-10-31T04:59:26;21.70;76.20
24087;DHT22;22893;50.572;7.234;2022-10-31T05:01:54;21.70;76.30
24087;DHT22;22893;50.572;7.234;2022-10-31T11:36:01;21.80;78.30
24087;DHT22;22893;50.572;7.234;2022-10-31T11:38:35;21.80;78.30
24087;DHT22;22893;50.572;7.234;2022-10-31T11:44:00;21.90;78.20
24087;DHT22;22893;50.572;7.234;2022-10-31T11:46:47;21.80;78.30
24087;DHT22;22893;50.572;7.234;2022-10-31T11:52:05;21.80;79.30
24087;DHT22;22893;50.572;7.234;2022-10-31T11:57:03;21.80;78.50
24087;DHT22;22893;50.572;7.234;2022-10-31T11:59:32;21.90;78.50
24087;DHT22;22893;50.572;7.234;2022-10-31T12:02:01;21.90;78.50
24087;DHT22;22893;50.572;7.234;2022-10-31T12:04:45;21.90;78.50
24087;DHT22;22893;50.572;7.234;2022-10-31T12:07:12;21.90;78.50
24087;DHT22;22893;50.572;7.234;2022-10-31T12:09:41;21.90;78.60
24087;DHT22;22893;50.572;7.234;2022-10-31T12:23:04;22.00;79.00
24087;DHT22;22893;50.572;7.234;2022-10-31T12:25:37;22.00;79.00
24087;DHT22;22893;50.572;7.234;2022-10-31T12:30:58;22.00;79.20
24087;DHT22;22893;50.572;7.234;2022-10-31T12:33:32;22.00;79.40
24087;DHT22;22893;50.572;7.234;2022-10-31T12:36:10;22.00;79.70
24087;DHT22;22893;50.572;7.234;2022-10-31T12:50:25;22.00;79.80
24087;DHT22;22893;50.572;7.234;2022-10-31T12:56:29;22.00;79.80
24087;DHT22;22893;50.572;7.234;2022-10-31T12:58:30;22.00;80.00
24087;DHT22;22893;50.572;7.234;2022-10-31T13:01:07;22.00;80.10
24087;DHT22;22893;50.572;7.234;2022-10-31T13:03:38;22.00;80.10
24087;DHT22;22893;50.572;7.234;2022-10-31T13:06:06;22.10;80.50
24087;DHT22;22893;50.572;7.234;2022-10-31T13:08:39;22.00;80.40
24087;DHT22;22893;50.572;7.234;2022-10-31T13:11:18;22.10;80.80
24087;DHT22;22893;50.572;7.234;2022-10-31T13:13:58;22.10;81.10
24087;DHT22;22893;50.572;7.234;2022-10-31T13:16:33;22.10;80.60
24087;DHT22;22893;50.572;7.234;2022-10-31T13:19:01;22.10;80.90
24087;DHT22;22893;50.572;7.234;2022-10-31T13:21:34;22.10;80.60
24087;DHT22;22893;50.572;7.234;2022-10-31T13:24:02;22.10;80.70
24087;DHT22;22893;50.572;7.234;2022-10-31T13:26:46;22.10;80.50
24087;DHT22;22893;50.572;7.234;2022-10-31T13:29:24;22.00;79.50
24087;DHT22;22893;50.572;7.234;2022-10-31T13:31:52;22.10;80.50
24087;DHT22;22893;50.572;7.234;2022-10-31T13:34:29;22.10;80.60
24087;DHT22;22893;50.572;7.234;2022-10-31T13:40:01;22.10;81.00
24087;DHT22;22893;50.572;7.234;2022-10-31T13:45:17;22.10;81.30
24087;DHT22;22893;50.572;7.234;2022-10-31T13:47:56;22.10;81.00
24087;DHT22;22893;50.572;7.234;2022-10-31T13:50:32;22.10;81.60
24087;DHT22;22893;50.572;7.234;2022-10-31T13:56:04;22.10;81.10
24087;DHT22;22893;50.572;7.234;2022-10-31T13:58:30;22.20;81.30
24087;DHT22;22893;50.572;7.234;2022-10-31T14:03:36;22.10;81.20
24087;DHT22;22893;50.572;7.234;2022-10-31T14:06:07;22.10;81.90
24087;DHT22;22893;50.572;7.234;2022-10-31T14:08:49;22.10;81.40
24087;DHT22;22893;50.572;7.234;2022-10-31T14:11:09;22.10;81.40
24087;DHT22;22893;50.572;7.234;2022-10-31T14:13:42;22.20;81.50
24087;DHT22;22893;50.572;7.234;2022-10-31T14:16:23;22.10;81.30
24087;DHT22;22893;50.572;7.234;2022-10-31T14:19:15;22.20;81.30
24087;DHT22;22893;50.572;7.234;2022-10-31T14:21:27;22.20;81.50
24087;DHT22;22893;50.572;7.234;2022-10-31T14:23:55;22.10;81.60
24087;DHT22;22893;50.572;7.234;2022-10-31T14:34:37;22.20;81.60
24087;DHT22;22893;50.572;7.234;2022-10-31T14:37:27;22.20;81.80
24087;DHT22;22893;50.572;7.234;2022-10-31T14:40:02;22.20;81.80
24087;DHT22;22893;50.572;7.234;2022-10-31T14:45:39;22.20;81.40
24087;DHT22;22893;50.572;7.234;2022-10-31T14:48:23;22.20;81.40
24087;DHT22;22893;50.572;7.234;2022-10-31T14:50:55;22.20;81.50
24087;DHT22;22893;50.572;7.234;2022-10-31T14:54:01;22.20;81.30
24087;DHT22;22893;50.572;7.234;2022-10-31T14:56:03;22.20;81.30
24087;DHT22;22893;50.572;7.234;2022-10-31T14:58:37;22.20;81.30
24087;DHT22;22893;50.572;7.234;2022-10-31T15:01:06;22.20;81.50
24087;DHT22;22893;50.572;7.234;2022-10-31T15:03:36;22.20;81.30
24087;DHT22;22893;50.572;7.234;2022-10-31T15:06:09;22.20;81.30
24087;DHT22;22893;50.572;7.234;2022-10-31T15:08:46;22.20;81.30
24087;DHT22;22893;50.572;7.234;2022-10-31T15:11:21;22.20;81.60
24087;DHT22;22893;50.572;7.234;2022-10-31T15:13:54;22.20;81.50
24087;DHT22;22893;50.572;7.234;2022-10-31T15:16:28;22.20;81.30
24087;DHT22;22893;50.572;7.234;2022-10-31T15:19:02;22.20;81.30
24087;DHT22;22893;50.572;7.234;2022-10-31T15:21:29;22.20;81.30
24087;DHT22;22893;50.572;7.234;2022-10-31T15:24:00;22.20;81.10
24087;DHT22;22893;50.572;7.234;2022-10-31T15:26:31;22.20;81.20
24087;DHT22;22893;50.572;7.234;2022-10-31T15:29:04;22.20;81.40
24087;DHT22;22893;50.572;7.234;2022-10-31T15:31:32;22.20;81.30
24087;DHT22;22893;50.572;7.234;2022-10-31T15:34:16;22.20;81.20
24087;DHT22;22893;50.572;7.234;2022-10-31T15:36:36;22.20;81.20
24087;DHT22;22893;50.572;7.234;2022-10-31T15:39:03;22.20;81.20
24087;DHT22;22893;50.572;7.234;2022-10-31T15:41:48;22.20;81.30
24087;DHT22;22893;50.572;7.234;2022-10-31T15:44:23;22.20;81.10
24087;DHT22;22893;50.572;7.234;2022-10-31T15:46:59;22.20;81.10
24087;DHT22;22893;50.572;7.234;2022-10-31T15:49:41;22.20;81.30
24087;DHT22;22893;50.572;7.234;2022-10-31T15:54:46;22.20;81.20
24087;DHT22;22893;50.572;7.234;2022-10-31T15:57:13;22.20;81.20
24087;DHT22;22893;50.572;7.234;2022-10-31T15:59:44;22.20;81.40
24087;DHT22;22893;50.572;7.234;2022-10-31T16:02:13;22.20;81.10
24087;DHT22;22893;50.572;7.234;2022-10-31T16:04:58;22.20;81.20
24087;DHT22;22893;50.572;7.234;2022-10-31T16:07:28;22.20;82.10
24087;DHT22;22893;50.572;7.234;2022-10-31T16:10:01;22.20;81.20
24087;DHT22;22893;50.572;7.234;2022-10-31T16:12:37;22.20;81.20
24087;DHT22;22893;50.572;7.234;2022-10-31T16:15:05;22.20;81.10
24087;DHT22;22893;50.572;7.234;2022-10-31T16:17:34;22.20;81.00
24087;DHT22;22893;50.572;7.234;2022-10-31T16:20:04;22.20;80.90
24087;DHT22;22893;50.572;7.234;2022-10-31T16:22:37;22.20;81.80
24087;DHT22;22893;50.572;7.234;2022-10-31T16:25:28;22.20;80.70
24087;DHT22;22893;50.572;7.234;2022-10-31T16:27:53;22.20;80.70
24087;DHT22;22893;50.572;7.234;2022-10-31T16:30:39;22.20;80.20
24087;DHT22;22893;50.572;7.234;2022-10-31T16:33:34;22.20;80.40
24087;DHT22;22893;50.572;7.234;2022-10-31T16:36:39;22.20;80.30
24087;DHT22;22893;50.572;7.234;2022-10-31T16:38:54;22.20;80.00
24087;DHT22;22893;50.572;7.234;2022-10-31T16:41:22;22.20;80.00
24087;DHT22;22893;50.572;7.234;2022-10-31T16:43:51;22.20;80.00
24087;DHT22;22893;50.572;7.234;2022-10-31T16:46:24;22.20;79.70
24087;DHT22;22893;50.572;7.234;2022-10-31T16:48:52;22.10;79.30
24087;DHT22;22893;50.572;7.234;2022-10-31T16:51:20;22.10;79.50
24087;DHT22;22893;50.572;7.234;2022-10-31T16:53:52;22.10;79.40
24087;DHT22;22893;50.572;7.234;2022-10-31T16:56:31;22.10;78.70
24087;DHT22;22893;50.572;7.234;2022-10-31T16:58:54;22.10;78.90
24087;DHT22;22893;50.572;7.234;2022-10-31T17:01:22;22.10;79.20
24087;DHT22;22893;50.572;7.234;2022-10-31T17:03:49;22.10;79.20
24087;DHT22;22893;50.572;7.234;2022-10-31T17:06:17;22.10;79.20
24087;DHT22;22893;50.572;7.234;2022-10-31T17:08:44;22.10;78.80
24087;DHT22;22893;50.572;7.234;2022-10-31T17:11:16;22.00;78.20
24087;DHT22;22893;50.572;7.234;2022-10-31T17:13:43;22.00;79.80
24087;DHT22;22893;50.572;7.234;2022-10-31T17:16:12;22.00;79.10
24087;DHT22;22893;50.572;7.234;2022-10-31T17:18:43;22.10;79.20
24087;DHT22;22893;50.572;7.234;2022-10-31T17:21:19;22.10;79.30
24087;DHT22;22893;50.572;7.234;2022-10-31T17:23:42;22.10;79.30
24087;DHT22;22893;50.572;7.234;2022-10-31T17:26:10;22.10;79.30
24087;DHT22;22893;50.572;7.234;2022-10-31T17:28:38;22.10;80.10
24087;DHT22;22893;50.572;7.234;2022-10-31T17:31:06;22.10;79.40
24087;DHT22;22893;50.572;7.234;2022-10-31T17:33:35;22.10;79.40
24087;DHT22;22893;50.572;7.234;2022-10-31T17:36:03;22.10;79.50
24087;DHT22;22893;50.572;7.234;2022-10-31T17:38:31;22.10;79.40
24087;DHT22;22893;50.572;7.234;2022-10-31T23:59:31;22.10;81.40
